Time;durP1;ratioP1;P1;durP2;ratioP2;P2;SDS_P1;SDS_P2;PMS_P1;PMS_P2;Temp;Humidity;BMP_temperature;BMP_pressure;BME280_temperature;BME280_humidity;BME280_pressure;Samples;Min_cycle;Max_cycle;Signal;HPM_P1;HPM_P2
2023/06/15 00:00:47;;;;;;;9.30;5.30;;;15.40;99.90;;;;;;5075567;28;20059;-38
2023/06/15 00:03:13;;;;;;;8.38;4.95;;;15.40;99.90;;;;;;5073724;28;20067;-38
2023/06/15 00:05:39;;;;;;;7.43;5.03;;;15.40;99.90;;;;;;5075170;28;20244;-38
2023/06/15 00:08:05;;;;;;;5.85;5.20;;;15.30;99.90;;;;;;5075115;28;20079;-38
2023/06/15 00:10:31;;;;;;;8.73;5.30;;;15.30;99.90;;;;;;5074150;28;20556;-38
2023/06/15 00:12:57;;;;;;;6.60;4.63;;;15.30;99.90;;;;;;5074280;28;20040;-38
2023/06/15 00:15:22;;;;;;;6.63;5.13;;;15.30;99.90;;;;;;5074825;28;20127;-38
2023/06/15 00:17:48;;;;;;;8.07;4.70;;;15.20;99.90;;;;;;5074502;28;20135;-38
2023/06/15 00:20:14;;;;;;;11.82;5.25;;;15.20;99.90;;;;;;5074480;28;20932;-38
2023/06/15 00:22:41;;;;;;;7.53;5.15;;;15.20;99.90;;;;;;5072082;28;20075;-38
2023/06/15 00:25:08;;;;;;;6.57;4.72;;;15.10;99.90;;;;;;5073334;28;20082;-38
2023/06/15 00:27:37;;;;;;;5.07;4.50;;;15.10;99.90;;;;;;5073924;28;20035;-38
2023/06/15 00:30:04;;;;;;;6.63;4.70;;;15.10;99.90;;;;;;5073626;28;20544;-38
2023/06/15 00:32:29;;;;;;;6.38;4.40;;;15.10;99.90;;;;;;5074390;28;20068;-38
2023/06/15 00:34:55;;;;;;;10.25;4.35;;;15.00;99.90;;;;;;5073388;28;20056;-38
2023/06/15 00:37:21;;;;;;;6.07;3.85;;;15.00;99.90;;;;;;5064260;28;20487;-38
2023/06/15 00:39:47;;;;;;;6.07;4.90;;;15.00;99.90;;;;;;5066658;28;20536;-37
2023/06/15 00:42:12;;;;;;;6.72;4.30;;;15.00;99.90;;;;;;5074520;28;20089;-38
2023/06/15 00:44:38;;;;;;;10.00;4.60;;;14.90;99.90;;;;;;5072165;28;20564;-38
2023/06/15 00:47:04;;;;;;;6.65;4.80;;;14.90;99.90;;;;;;5074017;28;20291;-38
2023/06/15 00:49:32;;;;;;;5.13;4.28;;;14.90;99.90;;;;;;5072209;28;20058;-38
2023/06/15 00:51:59;;;;;;;8.70;4.47;;;14.90;99.90;;;;;;5074274;28;20047;-38
2023/06/15 00:54:25;;;;;;;9.85;5.15;;;14.90;99.90;;;;;;5071323;28;20055;-38
2023/06/15 00:56:52;;;;;;;9.75;4.70;;;14.80;99.90;;;;;;5073937;28;20044;-38
2023/06/15 00:59:19;;;;;;;5.90;5.10;;;14.80;99.90;;;;;;5073435;28;20040;-38
2023/06/15 01:01:47;;;;;;;7.75;4.97;;;14.70;99.90;;;;;;5075389;28;20122;-38
2023/06/15 01:04:14;;;;;;;7.53;4.70;;;14.70;99.90;;;;;;5074700;28;20373;-38
2023/06/15 01:06:51;;;;;;;10.13;5.32;;;14.70;99.90;;;;;;5073709;28;20048;-38
2023/06/15 01:09:21;;;;;;;9.23;5.38;;;14.60;99.90;;;;;;5073342;28;20118;-37
2023/06/15 01:11:52;;;;;;;8.35;5.55;;;14.50;99.90;;;;;;5071530;28;20893;-38
2023/06/15 01:14:20;;;;;;;7.65;5.05;;;14.50;99.90;;;;;;5073512;28;20055;-38
2023/06/15 01:16:52;;;;;;;7.75;5.10;;;14.50;99.90;;;;;;5074474;28;20113;-38
2023/06/15 01:19:39;;;;;;;8.05;4.95;;;14.50;99.90;;;;;;5071849;28;20055;-38
2023/06/15 01:22:17;;;;;;;7.82;5.13;;;14.50;99.90;;;;;;5073523;28;20035;-37
2023/06/15 01:24:49;;;;;;;6.32;4.80;;;14.50;99.90;;;;;;5073049;28;20462;-38
2023/06/15 01:27:18;;;;;;;8.63;5.57;;;14.40;99.90;;;;;;5073560;28;20063;-38
2023/06/15 01:29:44;;;;;;;5.70;5.00;;;14.40;99.90;;;;;;5072745;28;20278;-38
2023/06/15 01:32:10;;;;;;;6.63;5.28;;;14.30;99.90;;;;;;5072024;28;20044;-38
2023/06/15 01:34:36;;;;;;;6.93;5.15;;;14.30;99.90;;;;;;5072676;28;20051;-38
2023/06/15 01:37:02;;;;;;;8.68;5.35;;;14.30;99.90;;;;;;5066107;28;20076;-38
2023/06/15 01:39:28;;;;;;;7.35;5.53;;;14.20;99.90;;;;;;5062897;28;20044;-38
2023/06/15 01:41:54;;;;;;;7.45;5.18;;;14.20;99.90;;;;;;5071629;28;20151;-37
2023/06/15 01:44:20;;;;;;;9.27;5.45;;;14.20;99.90;;;;;;5071802;28;20601;-37
2023/06/15 01:46:47;;;;;;;6.53;5.15;;;14.20;99.90;;;;;;5074389;28;20416;-38
2023/06/15 01:49:12;;;;;;;9.35;5.40;;;14.10;99.90;;;;;;5073748;28;20051;-38
2023/06/15 01:51:38;;;;;;;8.05;5.10;;;14.10;99.90;;;;;;5073473;28;20047;-38
2023/06/15 01:54:04;;;;;;;9.15;5.75;;;14.10;99.90;;;;;;5073278;28;20039;-37
2023/06/15 01:56:30;;;;;;;8.85;5.40;;;14.20;99.90;;;;;;5074098;28;20593;-38
2023/06/15 01:58:55;;;;;;;10.80;5.70;;;14.10;99.90;;;;;;5071105;28;20048;-38
2023/06/15 02:01:21;;;;;;;9.05;5.43;;;14.10;99.90;;;;;;5067731;28;20048;-37
2023/06/15 02:03:47;;;;;;;8.60;5.63;;;14.10;99.90;;;;;;5067580;28;20235;-38
2023/06/15 02:06:12;;;;;;;8.68;5.72;;;14.00;99.90;;;;;;5072027;28;20043;-38
2023/06/15 02:08:38;;;;;;;8.45;5.50;;;14.00;99.90;;;;;;5072124;28;20070;-38
2023/06/15 02:11:03;;;;;;;11.60;6.20;;;14.00;99.90;;;;;;5073874;28;20127;-38
2023/06/15 02:13:29;;;;;;;12.55;6.30;;;14.00;99.90;;;;;;5072764;28;20040;-38
2023/06/15 02:15:55;;;;;;;9.35;6.10;;;14.00;99.90;;;;;;5074013;28;20607;-38
2023/06/15 02:18:21;;;;;;;9.52;5.95;;;14.00;99.90;;;;;;5072774;28;20484;-38
2023/06/15 02:20:46;;;;;;;10.52;5.72;;;14.00;99.90;;;;;;5073802;28;20371;-38
2023/06/15 02:23:12;;;;;;;7.28;5.43;;;14.00;99.90;;;;;;5073596;28;20442;-38
2023/06/15 02:25:38;;;;;;;8.15;5.93;;;14.00;99.90;;;;;;5073555;28;20575;-38
2023/06/15 02:28:04;;;;;;;7.50;5.10;;;14.00;99.90;;;;;;5073120;28;20036;-37
2023/06/15 02:30:31;;;;;;;10.40;5.90;;;14.00;99.90;;;;;;5072237;28;20096;-38
2023/06/15 02:33:00;;;;;;;8.88;5.82;;;13.90;99.90;;;;;;5072711;28;20447;-38
2023/06/15 02:35:26;;;;;;;7.05;5.53;;;14.00;99.90;;;;;;5073657;28;20055;-38
2023/06/15 02:37:51;;;;;;;11.13;5.63;;;14.00;99.90;;;;;;5062043;28;20048;-37
2023/06/15 02:40:17;;;;;;;9.88;5.72;;;14.00;99.90;;;;;;5066095;28;20189;-37
2023/06/15 02:42:43;;;;;;;6.80;6.10;;;14.00;99.90;;;;;;5074624;28;20093;-38
2023/06/15 02:45:09;;;;;;;11.98;5.75;;;14.00;99.90;;;;;;5076812;28;20051;-38
2023/06/15 02:47:37;;;;;;;10.05;6.82;;;14.00;99.90;;;;;;5076511;28;20523;-38
2023/06/15 02:50:05;;;;;;;10.15;5.80;;;14.00;99.90;;;;;;5076172;28;20036;-37
2023/06/15 02:52:31;;;;;;;9.48;5.80;;;14.00;99.90;;;;;;5075905;28;20127;-37
2023/06/15 02:55:00;;;;;;;8.95;5.65;;;13.90;99.90;;;;;;5075068;28;20071;-38
2023/06/15 02:57:26;;;;;;;7.85;6.47;;;13.90;99.90;;;;;;5076346;28;20044;-38
2023/06/15 02:59:52;;;;;;;13.75;7.03;;;13.90;99.90;;;;;;5075199;28;20467;-38
2023/06/15 03:02:20;;;;;;;7.82;6.85;;;13.90;99.90;;;;;;5074714;28;20048;-37
2023/06/15 03:04:47;;;;;;;8.55;6.25;;;13.90;99.90;;;;;;5076348;28;20425;-38
2023/06/15 03:07:16;;;;;;;8.07;6.80;;;13.80;99.90;;;;;;5076536;28;20369;-37
2023/06/15 03:09:46;;;;;;;6.75;6.05;;;13.80;99.90;;;;;;5075648;28;20050;-38
2023/06/15 03:12:12;;;;;;;10.82;6.38;;;13.70;99.90;;;;;;5075896;28;20822;-38
2023/06/15 03:14:37;;;;;;;11.18;6.28;;;13.70;99.90;;;;;;5074864;28;20060;-38
2023/06/15 03:17:04;;;;;;;9.27;5.88;;;13.70;99.90;;;;;;5075987;28;20040;-38
2023/06/15 03:19:30;;;;;;;14.35;6.53;;;13.70;99.90;;;;;;5075327;28;20040;-38
2023/06/15 03:21:57;;;;;;;11.93;6.65;;;13.70;99.90;;;;;;5074087;28;20063;-38
2023/06/15 03:24:25;;;;;;;9.15;6.40;;;13.70;99.90;;;;;;5075124;28;20048;-38
2023/06/15 03:26:51;;;;;;;12.57;6.88;;;13.70;99.90;;;;;;5076002;28;20044;-38
2023/06/15 03:29:16;;;;;;;8.45;6.00;;;13.80;99.90;;;;;;5073534;28;20044;-38
2023/06/15 03:31:42;;;;;;;8.23;6.68;;;13.80;99.90;;;;;;5074534;28;20059;-38
2023/06/15 03:34:09;;;;;;;10.55;7.05;;;13.80;99.90;;;;;;5075163;28;20094;-38
2023/06/15 03:36:35;;;;;;;13.35;6.45;;;13.80;99.90;;;;;;5071475;28;20044;-38
2023/06/15 03:39:02;;;;;;;10.07;6.15;;;13.90;99.90;;;;;;5065141;28;20053;-38
2023/06/15 03:41:30;;;;;;;11.65;7.10;;;13.90;99.90;;;;;;5074215;28;20051;-38
2023/06/15 03:43:56;;;;;;;11.38;6.45;;;14.00;99.90;;;;;;5073284;28;20083;-38
2023/06/15 03:46:21;;;;;;;8.75;6.25;;;14.20;99.90;;;;;;5088904;28;20058;-38
2023/06/15 03:48:49;;;;;;;8.10;6.15;;;14.60;99.90;;;;;;5075310;28;20052;-38
2023/06/15 03:51:14;;;;;;;9.60;6.25;;;15.10;99.90;;;;;;5074446;28;20189;-39
2023/06/15 03:53:44;;;;;;;7.53;6.55;;;15.60;99.90;;;;;;5073545;28;20040;-38
2023/06/15 03:56:10;;;;;;;8.75;6.65;;;16.00;99.90;;;;;;5074361;28;20055;-38
2023/06/15 03:58:36;;;;;;;11.27;6.50;;;16.40;99.90;;;;;;5075181;28;20052;-38
2023/06/15 04:01:06;;;;;;;11.90;7.15;;;16.90;99.90;;;;;;5068687;28;20041;-39
2023/06/15 04:03:34;;;;;;;10.55;6.80;;;17.30;99.90;;;;;;5069156;28;20040;-39
2023/06/15 04:06:04;;;;;;;7.45;6.03;;;17.70;99.90;;;;;;5072391;28;20032;-39
2023/06/15 04:08:32;;;;;;;9.10;6.10;;;18.10;99.90;;;;;;5074473;28;20052;-40
2023/06/15 04:10:57;;;;;;;12.13;6.82;;;18.50;99.90;;;;;;5074773;28;20129;-39
2023/06/15 04:13:23;;;;;;;9.50;5.72;;;18.80;99.90;;;;;;5074369;28;20089;-39
2023/06/15 04:15:50;;;;;;;6.72;5.68;;;19.30;99.90;;;;;;5074898;28;20052;-39
2023/06/15 04:18:16;;;;;;;6.93;5.13;;;19.60;99.90;;;;;;5074884;28;20054;-39
2023/06/15 04:20:43;;;;;;;11.68;6.57;;;19.90;99.90;;;;;;5057228;28;20048;-39
2023/06/15 04:23:10;;;;;;;9.45;5.68;;;20.40;99.90;;;;;;5074434;28;20064;-39
2023/06/15 04:25:37;;;;;;;8.98;6.00;;;20.90;99.90;;;;;;5074677;28;20341;-39
2023/06/15 04:28:05;;;;;;;7.13;5.70;;;21.30;99.90;;;;;;5073732;28;20040;-39
2023/06/15 04:30:32;;;;;;;8.90;5.55;;;21.70;99.90;;;;;;5074522;28;20047;-39
2023/06/15 04:32:59;;;;;;;8.18;6.18;;;22.20;99.80;;;;;;5073517;28;20050;-39
2023/06/15 04:35:31;;;;;;;8.57;5.97;;;22.50;98.80;;;;;;5074999;28;20052;-40
2023/06/15 04:38:00;;;;;;;7.47;5.85;;;23.00;98.10;;;;;;5062661;28;20091;-39
2023/06/15 04:40:26;;;;;;;9.68;5.70;;;23.50;97.60;;;;;;5073985;28;20459;-40
2023/06/15 04:42:53;;;;;;;8.65;6.30;;;23.90;96.70;;;;;;5069801;28;20060;-40
2023/06/15 04:45:19;;;;;;;9.45;5.53;;;24.30;96.00;;;;;;5074176;28;20388;-40
2023/06/15 04:47:45;;;;;;;10.48;5.30;;;24.60;95.30;;;;;;5074095;28;20406;-40
2023/06/15 04:50:13;;;;;;;8.20;5.60;;;24.90;94.80;;;;;;5073957;28;20040;-40
2023/06/15 04:52:42;;;;;;;8.82;5.07;;;25.20;94.20;;;;;;5071684;28;20169;-40
2023/06/15 04:55:08;;;;;;;8.02;5.63;;;25.60;93.80;;;;;;5073954;28;20553;-40
2023/06/15 04:57:34;;;;;;;8.57;5.45;;;25.90;93.40;;;;;;5073720;28;20048;-40
2023/06/15 05:00:00;;;;;;;8.25;5.90;;;26.20;93.20;;;;;;5072971;28;20062;-41
2023/06/15 05:02:26;;;;;;;10.07;5.55;;;26.50;93.00;;;;;;5072825;28;20271;-41
2023/06/15 05:04:51;;;;;;;8.55;5.38;;;26.90;92.60;;;;;;5073716;28;20048;-40
2023/06/15 05:07:17;;;;;;;8.10;5.28;;;27.30;92.40;;;;;;5074389;28;20048;-41
2023/06/15 05:09:43;;;;;;;13.38;5.53;;;27.80;91.90;;;;;;5073779;28;20132;-41
2023/06/15 05:12:09;;;;;;;9.40;5.60;;;28.30;90.90;;;;;;5073608;28;20388;-40
2023/06/15 05:14:34;;;;;;;7.13;5.63;;;28.80;90.40;;;;;;5072656;28;20142;-41
2023/06/15 05:17:03;;;;;;;6.88;5.53;;;29.20;90.20;;;;;;5073810;28;20084;-42
2023/06/15 05:19:30;;;;;;;7.82;5.10;;;29.70;88.80;;;;;;5074336;28;20058;-41
2023/06/15 05:21:59;;;;;;;7.40;4.90;;;30.10;87.60;;;;;;5073570;28;20204;-41
2023/06/15 05:24:25;;;;;;;7.97;5.32;;;30.60;85.40;;;;;;5072226;28;20079;-43
2023/06/15 05:26:51;;;;;;;7.40;5.15;;;31.10;84.10;;;;;;5073815;28;20598;-41
2023/06/15 05:29:17;;;;;;;7.50;5.13;;;31.30;82.10;;;;;;5073782;28;20047;-44
2023/06/15 05:31:42;;;;;;;5.88;4.60;;;31.20;82.10;;;;;;5072174;28;20048;-41
2023/06/15 05:34:08;;;;;;;8.63;4.78;;;31.60;80.90;;;;;;5072555;28;20535;-44
2023/06/15 05:36:34;;;;;;;6.10;5.20;;;31.80;80.20;;;;;;5071169;28;20155;-41
2023/06/15 05:39:00;;;;;;;7.78;5.18;;;32.00;79.40;;;;;;5063324;28;20049;-42
2023/06/15 05:41:26;;;;;;;6.90;4.88;;;32.30;78.60;;;;;;5072128;28;20067;-41
2023/06/15 05:43:51;;;;;;;9.77;4.88;;;32.40;78.80;;;;;;5072278;28;20483;-42
2023/06/15 05:46:17;;;;;;;5.30;4.53;;;32.60;78.00;;;;;;5074100;28;20562;-44
2023/06/15 05:48:43;;;;;;;8.60;4.95;;;33.20;77.30;;;;;;5073819;28;20036;-42
2023/06/15 05:51:08;;;;;;;8.95;4.90;;;33.60;75.70;;;;;;5074065;28;20150;-39
2023/06/15 05:53:34;;;;;;;8.68;4.95;;;33.90;74.00;;;;;;5073632;28;20570;-41
2023/06/15 05:56:00;;;;;;;10.77;5.18;;;34.10;73.80;;;;;;5072748;28;20052;-42
2023/06/15 05:58:25;;;;;;;10.00;5.03;;;33.90;74.00;;;;;;5073617;28;20076;-39
2023/06/15 06:00:51;;;;;;;7.10;4.93;;;34.00;72.80;;;;;;5073077;28;20056;-40
2023/06/15 06:03:17;;;;;;;5.93;5.07;;;34.10;72.80;;;;;;5072749;28;20038;-39
2023/06/15 06:05:42;;;;;;;8.35;5.30;;;34.10;72.60;;;;;;5073573;28;20127;-40
2023/06/15 06:08:08;;;;;;;7.28;5.38;;;34.20;72.60;;;;;;5072722;28;20044;-40
2023/06/15 06:10:34;;;;;;;8.10;5.15;;;34.70;71.60;;;;;;5073117;28;20494;-41
2023/06/15 06:12:59;;;;;;;7.95;4.88;;;35.00;71.10;;;;;;5072851;28;20040;-39
2023/06/15 06:15:26;;;;;;;8.43;4.50;;;34.90;72.50;;;;;;5073093;28;20071;-41
2023/06/15 06:17:52;;;;;;;8.85;5.20;;;35.20;71.50;;;;;;5075303;28;20533;-41
2023/06/15 06:20:18;;;;;;;5.38;4.60;;;35.20;70.80;;;;;;5077115;28;20056;-39
2023/06/15 06:22:43;;;;;;;5.75;4.60;;;35.30;70.50;;;;;;5076757;28;20036;-42
2023/06/15 06:25:11;;;;;;;10.88;5.28;;;35.60;70.10;;;;;;5076494;28;20388;-39
2023/06/15 06:27:36;;;;;;;7.40;4.93;;;36.20;69.70;;;;;;5076805;28;20052;-39
2023/06/15 06:30:02;;;;;;;6.93;4.72;;;35.90;68.80;;;;;;5074618;28;20036;-40
2023/06/15 06:32:28;;;;;;;6.50;4.55;;;35.90;69.50;;;;;;5075857;28;20044;-40
2023/06/15 06:34:54;;;;;;;8.52;4.90;;;36.00;69.10;;;;;;5076069;28;20048;-40
2023/06/15 06:37:20;;;;;;;6.20;4.60;;;36.30;69.40;;;;;;5066894;28;20047;-40
2023/06/15 06:39:46;;;;;;;6.78;4.20;;;36.70;67.30;;;;;;5066351;28;20036;-40
2023/06/15 06:42:11;;;;;;;6.07;4.38;;;37.10;66.80;;;;;;5067229;28;20068;-41
2023/06/15 06:44:37;;;;;;;8.75;4.53;;;36.50;66.60;;;;;;5070579;28;20051;-40
2023/06/15 06:47:03;;;;;;;9.45;4.38;;;36.40;67.80;;;;;;5073908;28;20459;-40
2023/06/15 06:49:29;;;;;;;17.00;5.25;;;36.40;66.60;;;;;;5069954;28;20051;-40
2023/06/15 06:51:55;;;;;;;11.90;5.47;;;36.30;66.90;;;;;;5074008;28;20624;-39
2023/06/15 06:54:21;;;;;;;4.90;3.80;;;36.30;66.50;;;;;;5073668;28;20055;-41
2023/06/15 06:56:46;;;;;;;8.15;4.25;;;36.00;66.40;;;;;;5075287;28;20101;-41
2023/06/15 06:59:12;;;;;;;10.23;3.92;;;36.00;66.30;;;;;;5072885;28;20519;-40
2023/06/15 07:01:38;;;;;;;7.88;4.45;;;36.10;65.20;;;;;;5075401;28;20605;-40
2023/06/15 07:04:04;;;;;;;6.45;4.20;;;36.10;64.70;;;;;;5073125;28;20424;-42
2023/06/15 07:06:30;;;;;;;8.18;3.92;;;36.00;63.60;;;;;;5074928;28;20151;-42
2023/06/15 07:08:56;;;;;;;4.85;4.10;;;35.90;64.40;;;;;;5090863;27;20049;-42
2023/06/15 07:11:22;;;;;;;7.22;4.10;;;35.60;64.30;;;;;;5071980;28;20537;-44
2023/06/15 07:13:47;;;;;;;7.93;4.00;;;36.00;64.20;;;;;;5064614;28;20884;-43
2023/06/15 07:16:13;;;;;;;6.07;3.83;;;35.90;64.10;;;;;;5072184;28;20161;-42
2023/06/15 07:18:38;;;;;;;7.30;3.88;;;36.20;65.30;;;;;;5073705;28;20075;-42
2023/06/15 07:21:04;;;;;;;7.50;3.63;;;36.40;64.40;;;;;;5073775;28;20295;-42
2023/06/15 07:23:30;;;;;;;5.45;3.70;;;36.20;63.60;;;;;;5073674;28;20044;-42
2023/06/15 07:25:56;;;;;;;8.45;3.75;;;35.90;62.80;;;;;;5073753;28;20134;-42
2023/06/15 07:28:21;;;;;;;6.72;3.63;;;35.20;63.00;;;;;;5066877;28;20101;-42
2023/06/15 07:30:51;;;;;;;4.68;4.03;;;34.30;62.80;;;;;;5072553;28;20048;-41
2023/06/15 07:33:18;;;;;;;7.28;3.97;;;33.50;63.00;;;;;;5072681;28;20055;-41
2023/06/15 07:35:43;;;;;;;9.25;3.95;;;33.10;63.60;;;;;;5074419;28;20158;-42
2023/06/15 07:38:09;;;;;;;4.97;4.13;;;32.60;64.70;;;;;;5062485;28;20047;-41
2023/06/15 07:40:35;;;;;;;9.18;4.20;;;31.90;64.90;;;;;;5067918;28;20120;-43
2023/06/15 07:43:01;;;;;;;6.55;3.50;;;31.80;65.80;;;;;;5072142;28;20134;-41
2023/06/15 07:45:27;;;;;;;6.03;3.83;;;31.50;64.80;;;;;;5074565;28;20055;-41
2023/06/15 07:47:53;;;;;;;6.80;3.78;;;31.20;66.30;;;;;;5073302;28;20058;-41
2023/06/15 07:50:18;;;;;;;6.13;3.50;;;30.60;66.80;;;;;;5072724;28;20040;-41
2023/06/15 07:52:44;;;;;;;7.80;4.35;;;30.40;66.30;;;;;;5070396;28;20118;-41
2023/06/15 07:55:10;;;;;;;9.13;3.58;;;30.40;65.60;;;;;;5061106;28;20052;-41
2023/06/15 07:57:35;;;;;;;6.05;3.58;;;30.10;66.40;;;;;;5065417;28;20091;-42
2023/06/15 08:00:04;;;;;;;3.70;3.00;;;29.90;68.50;;;;;;5069575;28;20052;-41
2023/06/15 08:02:30;;;;;;;6.53;3.35;;;29.90;67.70;;;;;;5067319;28;20594;-41
2023/06/15 08:04:56;;;;;;;6.72;3.47;;;29.90;66.60;;;;;;5071121;28;20056;-41
2023/06/15 08:07:21;;;;;;;5.28;3.53;;;29.80;66.00;;;;;;5065203;28;20059;-41
2023/06/15 08:09:47;;;;;;;6.38;3.70;;;29.80;67.40;;;;;;5063877;28;20052;-40
2023/06/15 08:12:13;;;;;;;6.53;3.97;;;29.50;66.90;;;;;;5072604;28;20043;-41
2023/06/15 08:14:39;;;;;;;9.05;3.45;;;29.20;67.40;;;;;;5071547;28;20109;-41
2023/06/15 08:17:05;;;;;;;7.95;3.33;;;29.20;69.20;;;;;;5069025;28;20047;-41
2023/06/15 08:19:31;;;;;;;4.53;3.47;;;29.20;67.80;;;;;;5064582;28;20799;-41
2023/06/15 08:21:56;;;;;;;5.63;3.85;;;29.00;67.80;;;;;;5097700;27;20097;-41
2023/06/15 08:24:22;;;;;;;7.70;3.53;;;29.00;67.80;;;;;;5070091;28;20039;-43
2023/06/15 08:26:51;;;;;;;7.90;3.75;;;28.80;67.40;;;;;;5070878;28;20519;-40
2023/06/15 08:29:16;;;;;;;4.85;3.40;;;28.80;67.70;;;;;;5072613;28;20278;-41
2023/06/15 08:31:42;;;;;;;11.30;3.30;;;28.60;67.60;;;;;;5072808;28;20577;-41
2023/06/15 08:34:08;;;;;;;6.72;3.42;;;28.60;68.60;;;;;;5069024;28;20357;-42
2023/06/15 08:36:34;;;;;;;6.40;3.33;;;28.70;66.50;;;;;;5070028;28;20198;-40
2023/06/15 08:39:00;;;;;;;6.70;3.58;;;28.70;66.40;;;;;;5067560;28;20098;-41
2023/06/15 08:41:27;;;;;;;4.63;3.22;;;28.50;65.90;;;;;;5069709;28;20837;-41
2023/06/15 08:43:53;;;;;;;6.10;4.03;;;28.30;65.70;;;;;;5071304;28;20048;-41
2023/06/15 08:46:28;;;;;;;5.78;3.80;;;28.20;67.10;;;;;;5072290;28;20090;-41
2023/06/15 08:48:55;;;;;;;8.82;3.80;;;28.00;66.50;;;;;;5069139;28;20036;-41
2023/06/15 08:51:22;;;;;;;9.13;3.60;;;28.00;67.30;;;;;;5069156;28;20058;-41
2023/06/15 08:53:48;;;;;;;6.22;3.30;;;28.00;67.60;;;;;;5066982;28;20071;-40
2023/06/15 08:56:14;;;;;;;5.07;3.33;;;28.10;66.00;;;;;;5072809;28;20047;-41
2023/06/15 08:58:48;;;;;;;6.90;3.33;;;28.00;67.90;;;;;;5072126;28;20078;-40
2023/06/15 09:01:22;;;;;;;7.80;3.20;;;28.10;66.90;;;;;;5073453;28;20056;-40
2023/06/15 09:03:53;;;;;;;5.10;3.22;;;28.10;67.40;;;;;;5070736;28;21322;-41
2023/06/15 09:06:20;;;;;;;6.30;3.50;;;28.00;67.70;;;;;;5071559;28;20508;-42
2023/06/15 09:08:46;;;;;;;9.25;3.63;;;27.90;68.00;;;;;;5072158;28;20090;-40
2023/06/15 09:11:12;;;;;;;7.15;3.28;;;27.50;67.10;;;;;;5073605;28;20121;-41
2023/06/15 09:13:38;;;;;;;6.90;3.42;;;27.60;67.00;;;;;;5071799;28;20055;-45
2023/06/15 09:16:07;;;;;;;5.65;3.67;;;27.80;68.90;;;;;;5072166;28;20044;-40
2023/06/15 09:18:47;;;;;;;6.70;3.90;;;27.90;68.90;;;;;;5071614;28;20052;-42
2023/06/15 09:21:14;;;;;;;7.65;4.20;;;28.10;68.40;;;;;;5071026;28;20048;-42
2023/06/15 09:23:45;;;;;;;5.63;3.20;;;28.10;66.30;;;;;;5071529;28;20123;-41
2023/06/15 09:26:32;;;;;;;4.75;3.58;;;28.20;68.10;;;;;;5072695;28;20052;-40
2023/06/15 09:28:58;;;;;;;7.45;3.65;;;27.90;67.80;;;;;;5070657;28;20055;-41
2023/06/15 09:31:36;;;;;;;6.30;3.40;;;28.10;67.40;;;;;;5069962;28;20605;-41
2023/06/15 09:34:03;;;;;;;7.38;4.22;;;27.70;66.00;;;;;;5070326;28;20046;-41
2023/06/15 09:36:48;;;;;;;4.35;3.15;;;27.90;66.10;;;;;;5069493;28;20040;-40
2023/06/15 09:39:15;;;;;;;6.72;3.42;;;28.00;66.60;;;;;;5067107;28;20540;-40
2023/06/15 09:41:56;;;;;;;4.90;3.42;;;28.00;66.50;;;;;;5069548;28;20052;-41
2023/06/15 09:44:23;;;;;;;10.80;3.75;;;28.10;65.90;;;;;;5070241;28;20048;-40
2023/06/15 09:46:56;;;;;;;7.63;3.78;;;28.20;66.60;;;;;;5071447;28;20044;-41
2023/06/15 09:49:26;;;;;;;6.07;4.00;;;28.10;66.00;;;;;;5071037;28;20052;-40
2023/06/15 09:51:53;;;;;;;9.18;3.50;;;27.90;65.90;;;;;;5074351;28;20131;-40
2023/06/15 09:54:31;;;;;;;10.02;3.88;;;27.90;66.20;;;;;;5075002;28;20060;-41
2023/06/15 09:56:57;;;;;;;8.50;4.03;;;28.00;66.10;;;;;;5075842;28;20591;-42
2023/06/15 09:59:23;;;;;;;7.35;3.72;;;27.70;67.20;;;;;;5074918;28;20559;-40
2023/06/15 10:01:54;;;;;;;7.10;3.72;;;27.80;67.70;;;;;;5073245;28;20052;-40
2023/06/15 10:04:24;;;;;;;5.15;3.72;;;27.80;67.10;;;;;;5074244;28;20040;-41
2023/06/15 10:06:55;;;;;;;10.40;4.35;;;27.90;68.00;;;;;;5074915;28;20054;-40
2023/06/15 10:09:30;;;;;;;5.32;3.30;;;27.80;66.10;;;;;;5099200;27;20887;-40
2023/06/15 10:12:13;;;;;;;7.07;3.78;;;28.00;66.80;;;;;;5071583;28;20060;-40
2023/06/15 10:14:55;;;;;;;5.57;3.63;;;27.50;67.10;;;;;;5075911;28;20073;-40
2023/06/15 10:17:32;;;;;;;7.73;3.50;;;27.30;66.00;;;;;;5063306;28;20495;-40
2023/06/15 10:20:08;;;;;;;7.57;3.92;;;26.90;66.50;;;;;;5075763;28;20320;-42
2023/06/15 10:22:48;;;;;;;4.45;3.30;;;27.00;66.80;;;;;;5074923;28;20040;-40
2023/06/15 10:25:15;;;;;;;15.85;3.88;;;27.00;66.60;;;;;;5075219;28;20085;-40
2023/06/15 10:27:43;;;;;;;4.93;4.13;;;26.90;67.30;;;;;;5075202;28;20056;-40
2023/06/15 10:30:15;;;;;;;4.13;3.72;;;27.10;67.70;;;;;;5075671;28;20067;-41
2023/06/15 10:32:54;;;;;;;6.97;3.38;;;27.00;69.00;;;;;;5072178;28;20090;-40
2023/06/15 10:35:33;;;;;;;6.13;3.97;;;26.90;68.20;;;;;;5075349;28;20048;-40
2023/06/15 10:38:07;;;;;;;4.95;3.78;;;27.00;66.60;;;;;;5063092;28;20063;-40
2023/06/15 10:40:45;;;;;;;5.93;3.40;;;27.10;65.40;;;;;;5069812;28;20120;-40
2023/06/15 10:43:19;;;;;;;3.88;3.42;;;27.20;66.90;;;;;;5072644;28;20052;-40
2023/06/15 10:45:46;;;;;;;5.22;3.55;;;27.40;67.20;;;;;;5075881;28;20048;-41
2023/06/15 10:48:21;;;;;;;6.55;3.90;;;27.70;67.60;;;;;;5074191;28;20040;-40
2023/06/15 10:50:53;;;;;;;6.55;3.40;;;27.60;64.40;;;;;;5072999;28;20040;-40
2023/06/15 10:53:26;;;;;;;8.13;3.53;;;27.50;66.60;;;;;;5074534;28;20044;-40
2023/06/15 10:55:54;;;;;;;5.05;3.88;;;27.60;66.30;;;;;;5073368;28;20293;-39
2023/06/15 10:58:20;;;;;;;7.53;3.63;;;27.40;65.40;;;;;;5074207;28;20063;-41
2023/06/15 11:01:04;;;;;;;6.32;4.15;;;27.30;66.20;;;;;;5075378;28;20508;-40
2023/06/15 11:03:32;;;;;;;6.60;4.05;;;27.30;66.00;;;;;;5070265;28;20043;-40
2023/06/15 11:06:30;;;;;;;9.13;3.60;;;27.30;66.50;;;;;;5073421;28;20450;-41
2023/06/15 11:09:16;;;;;;;7.25;3.53;;;27.40;66.70;;;;;;4974909;28;20141;-40
2023/06/15 11:11:43;;;;;;;4.90;3.97;;;27.40;65.40;;;;;;5000032;28;20038;-39
2023/06/15 11:14:22;;;;;;;5.70;3.75;;;27.50;67.00;;;;;;4974315;28;20045;-40
2023/06/15 11:17:04;;;;;;;4.20;3.78;;;27.60;65.00;;;;;;4991636;28;20045;-40
2023/06/15 11:19:31;;;;;;;7.68;4.30;;;27.70;66.90;;;;;;4991301;28;20369;-40
2023/06/15 11:22:06;;;;;;;5.57;3.50;;;27.70;67.10;;;;;;4990339;28;20140;-40
2023/06/15 11:24:36;;;;;;;8.23;3.67;;;27.90;69.70;;;;;;4990756;28;20048;-40
2023/06/15 11:27:04;;;;;;;7.78;3.50;;;27.90;67.00;;;;;;4974210;28;20053;-40
2023/06/15 11:29:33;;;;;;;5.40;3.45;;;27.80;68.10;;;;;;4990243;28;20077;-40
2023/06/15 11:32:03;;;;;;;5.70;3.35;;;27.80;65.10;;;;;;4973633;28;20065;-40
2023/06/15 11:34:30;;;;;;;5.60;3.72;;;27.80;66.50;;;;;;4991523;28;20061;-40
2023/06/15 11:37:00;;;;;;;5.95;3.65;;;27.60;66.70;;;;;;4959112;28;20610;-39
2023/06/15 11:39:28;;;;;;;4.72;3.95;;;27.80;67.60;;;;;;4985774;28;20164;-40
2023/06/15 11:41:57;;;;;;;4.00;3.28;;;27.80;64.40;;;;;;4973860;28;20088;-40
2023/06/15 11:44:25;;;;;;;7.65;3.88;;;27.80;66.00;;;;;;4975226;28;20117;-40
2023/06/15 11:46:54;;;;;;;7.68;4.28;;;27.80;65.10;;;;;;5055943;28;20727;-40
2023/06/15 11:49:21;;;;;;;5.80;3.45;;;27.50;61.90;;;;;;5074243;28;20051;-40
2023/06/15 11:51:47;;;;;;;6.88;3.65;;;27.80;64.20;;;;;;5074180;28;20082;-40
2023/06/15 11:54:15;;;;;;;4.32;3.45;;;27.80;64.20;;;;;;5107199;27;20117;-40
2023/06/15 11:56:48;;;;;;;6.80;3.83;;;27.70;65.40;;;;;;5074425;28;20143;-40
2023/06/15 11:59:17;;;;;;;9.40;4.82;;;27.30;65.40;;;;;;5074031;28;20052;-40
2023/06/15 12:01:44;;;;;;;5.70;3.80;;;27.10;66.60;;;;;;5074064;28;20058;-39
2023/06/15 12:04:12;;;;;;;4.85;3.63;;;27.20;66.80;;;;;;5073579;28;20056;-40
2023/06/15 12:06:38;;;;;;;5.82;3.88;;;27.30;65.30;;;;;;5073723;28;20478;-40
2023/06/15 12:09:07;;;;;;;5.57;3.50;;;27.40;65.80;;;;;;5059255;28;20040;-40
2023/06/15 12:11:33;;;;;;;8.50;3.50;;;27.50;66.30;;;;;;5072938;28;20121;-40
2023/06/15 12:14:01;;;;;;;5.88;3.50;;;27.50;65.50;;;;;;5071061;28;20051;-40
2023/06/15 12:16:28;;;;;;;8.82;3.42;;;27.50;64.90;;;;;;5072023;28;20052;-40
2023/06/15 12:18:54;;;;;;;6.75;3.75;;;27.50;64.50;;;;;;5073051;28;20766;-40
2023/06/15 12:21:20;;;;;;;8.50;3.88;;;27.60;65.70;;;;;;5072959;28;20056;-39
2023/06/15 12:23:49;;;;;;;5.10;3.40;;;27.60;64.50;;;;;;5073723;28;20040;-40
2023/06/15 12:26:17;;;;;;;4.43;3.78;;;27.70;62.50;;;;;;5073603;28;20147;-39
2023/06/15 12:28:50;;;;;;;6.38;3.40;;;27.70;61.60;;;;;;5073721;28;20234;-39
2023/06/15 12:31:16;;;;;;;;;;;27.70;61.90;;;;;;5074642;28;20088;-40
2023/06/15 12:33:42;;;;;;;6.35;3.67;;;27.70;63.70;;;;;;5071898;28;20397;-40
2023/06/15 12:36:13;;;;;;;7.20;3.30;;;27.70;64.70;;;;;;5073541;28;20362;-39
2023/06/15 12:38:40;;;;;;;5.45;3.30;;;27.70;63.90;;;;;;5063102;28;20051;-40
2023/06/15 12:41:12;;;;;;;8.02;3.88;;;27.50;64.40;;;;;;5069438;28;20146;-39
2023/06/15 12:43:38;;;;;;;6.03;3.40;;;27.30;63.60;;;;;;5072104;28;20747;-39
2023/06/15 12:46:09;;;;;;;5.88;3.38;;;27.00;63.90;;;;;;5188093;27;20132;-40
2023/06/15 12:48:34;;;;;;;5.05;3.08;;;26.70;64.50;;;;;;5170988;27;20058;-41